sirena-travel.ru alexa rank chart, sirena-travel.ru alexa rank daily changes

sirena-travel.ru alexa rank chart, sirena-travel.ru alexa rank daily changes

sirena-travel.ru
Actual rank:
31 054

RANK HISTORY

Date Rank Diff
2018/11/17 31 054 -57 206
2018/11/16 88 260 +21 335
2018/11/15 66 925 -12 643
2018/11/14 79 568 +5 768
2018/11/13 73 800 -37 224
2018/11/12 111 024 +7 537
2018/11/11 103 487 +19 323
2018/11/10 84 164 +25 598
2018/11/09 58 566 -38 226
2018/11/08 96 792 -7 196
2018/11/07 103 988 +3 428
2018/11/06 100 560 +29 243
2018/11/05 71 317 -2 889
2018/11/04 74 206 +21 498
2018/11/03 52 708 -52 515
2018/11/02 105 223 +7 385
2018/11/01 97 838 +4 794
2018/10/31 93 044 -9 612
2018/10/30 102 656 +4 777
2018/10/29 97 879 +11 141
2018/10/28 86 738 +2 253
2018/10/27 84 485 -14 124
2018/10/26 98 609 +25 393
2018/10/25 73 216 -49 960
2018/10/24 123 176 +13 810
2018/10/23 109 366 +38 828
2018/10/22 70 538 -20 090
2018/10/21 90 628 +15 140
2018/10/20 75 488 -5 041
2018/10/19 80 529 -21 828
2018/10/18 102 357 +36 326
2018/10/17 66 031 -40 515
2018/10/16 106 546 -5 432
2018/10/15 111 978 +17 978
2018/10/14 94 000 +18 821
2018/10/13 75 179 -27 830
2018/10/12 103 009 +9 111
2018/10/11 93 898 -19 474
2018/10/10 113 372 -21 478
2018/10/09 134 850 +39 131
2018/10/08 95 719 -3 936
2018/10/07 99 655 +14 914
2018/10/06 84 741 -15 182
2018/10/05 99 923 +19 658
2018/10/04 80 265 +2 078
2018/10/03 78 187 -13 543
2018/10/02 91 730 +36 588
2018/10/01 55 142 -11 976
2018/09/30 67 118 -35 551
2018/09/29 102 669 +2 888
2018/09/28 99 781 -21 315
2018/09/27 121 096 +43 480
2018/09/26 77 616 -16 215
2018/09/25 93 831 -44 444
2018/09/24 138 275 +70 878
2018/09/23 67 397 -10 842
2018/09/22 78 239 -22 219
2018/09/21 100 458 +9 824
2018/09/20 90 634 -17 098
2018/09/19 107 732 -1 411
2018/09/18 109 143

WIDGET FOR YOUR SITE

DOMAINS WITH THE NEAREST RANK

Domain Rank
univ-pau.fr 31 049
utamap.com 31 050
imgshost.pro 31 051
lecturas.com 31 052
sj-tl.com 31 053
sirena-travel.ru 31 054
courant.com 31 055
1putlocker.io 31 056
bpm-power.com 31 057
skyslope.com 31 058
cartoonstock.com 31 059

DOMAINS WITH THE NEAREST RANK BY TLD .ru

Domain Rank
99px.ru 30 985
sheets-piano.ru 30 996
chpoking.ru 31 001
youloveit.ru 31 005
rusfishing.ru 31 006
sirena-travel.ru 31 054
theoryandpractice.ru 31 073
cn-fan.ru 31 083
jeck.ru 31 163
sidex.ru 31 167
biggeek.ru 31 191